• Join FlightAware (Why Join?)
  • Login
  • US Flag 
01:02PM EDT


 

Airport Tracker/Info


-or-


 

Live Flight TrackerFlight Track Log ✈ KFS73 ✈ 13-Jun-2013 ✈ KPVD - KAIZ

Flight Track Log - Related Links

Times and Time Zones

All times are in EDT time to prevent confusion due to time zone crossing. See the KFS73 flight status page for this flight to view local times or setup timezone preferences in your user account.

Time Position Orientation Groundspeed Altitude Reporting Facility
EDT Latitude Longitude Course Direction KTS MPH feet Rate Location/Type
02:46PM 41.6964 -71.5142 247° West 217 250 3,000  Level Boston Center
02:48PM 41.7000 -71.6658 270° West  Level FlightAware Approximate
02:48PM 41.6878 -71.7731 270° West 282 325 10,500  Level Boston Center
02:49PM 41.6819 -71.8731 266° West 258 297 13,100 2,340 Climbing Boston Center
02:50PM 41.6761 -71.9647 265° West 252 290 15,200 1,980 Climbing Boston Center
02:52PM 41.6767 -72.0622 270° West 257 296 17,500 2,040 Climbing Boston Center
02:53PM 41.6664 -72.1844 264° West 268 308 19,700 1,920 Climbing Boston Center
02:54PM 41.6564 -72.2928 263° West 282 325 21,400 1,800 Climbing Boston Center
02:55PM 41.6500 -72.3983 265° West 287 330 23,300 1,500 Climbing Boston Center
02:56PM 41.6439 -72.5122 266° West 298 343 24,400 1,080 Climbing Boston Center
02:57PM 41.6333 -72.6289 263° West 309 356 25,500 1,080 Climbing Boston Center
02:58PM 41.6267 -72.7456 266° West 315 362 26,600 960 Climbing Boston Center
02:59PM 41.6203 -72.8678 266° West 320 368 27,500 840 Climbing Boston Center
03:00PM 41.6133 -72.9900 266° West 327 376 28,300 780 Climbing Boston Center
03:01PM 41.6067 -73.0869 265° West 333 383 29,100 840 Climbing Boston Center
03:02PM 41.5911 -73.2367 262° West 338 389 30,200 1,080 Climbing Boston Center
03:03PM 41.5775 -73.3864 263° West 338 389 31,500 900 Climbing Boston Center
03:04PM 41.5658 -73.5028 262° West 338 389 32,000 240 Climbing Boston Center
03:05PM 41.5522 -73.6300 262° West 338 389 32,000  Level Boston Center
03:06PM 41.5425 -73.7464 264° West 338 389 32,000  Level Boston Center
03:07PM 41.5283 -73.8764 262° West 351 404 32,000  Level Boston Center
03:08PM 41.5186 -73.9844 263° West 358 412 32,000  Level Boston Center
03:10PM 41.4928 -74.2747 263° West 344 396 32,000  Level New York Center
03:11PM 41.4803 -74.4122 263° West 363 418 32,000  Level New York Center
03:12PM 41.4719 -74.5503 265° West 370 426 32,000  Level New York Center
03:13PM 41.4553 -74.6739 260° West 380 437 32,000  Level New York Center
03:14PM 41.4425 -74.8089 263° West 380 437 32,000  Level New York Center
03:15PM 41.4294 -74.9436 263° West 375 432 32,000  Level New York Center
03:16PM 41.4142 -75.0781 261° West 375 432 32,000  Level New York Center
03:17PM 41.4008 -75.2128 263° West 369 425 32,000  Level New York Center
03:18PM 41.3853 -75.3500 261° West 369 425 32,000  Level New York Center
03:19PM 41.3697 -75.4844 261° West 369 425 32,000  Level New York Center
03:20PM 41.3536 -75.6242 261° West 369 425 32,000  Level New York Center
03:21PM 41.3417 -75.7614 263° West 374 430 32,000  Level New York Center
03:22PM 41.3297 -75.8961 263° West 374 430 32,000  Level New York Center
03:23PM 41.3111 -76.0328 260° West 374 430 32,000  Level New York Center
03:24PM 41.2947 -76.1667 261° West 374 430 32,000  Level New York Center
03:26PM 41.2581 -76.4247 259° West  Level FlightAware Approximate
03:27PM 41.2406 -76.6039 259° West 389 448 32,000  Level New York Center
03:28PM 41.2233 -76.7403 261° West 389 448 32,000  Level New York Center
03:29PM 41.2058 -76.8794 261° West 389 448 32,000  Level New York Center
03:30PM 41.1903 -77.0189 262° West 389 448 32,000  Level New York Center
03:31PM 41.1728 -77.1522 260° West 384 442 32,000  Level New York Center
03:32PM 41.1569 -77.2914 261° West 384 442 32,000  Level New York Center
03:33PM 41.1389 -77.4275 260° West 384 442 32,000  Level New York Center
03:34PM 41.1006 -77.6347 256° West 367 422 32,000  Level Cleveland Center
03:35PM 41.0811 -77.7733 260° West 367 422 32,000  Level Cleveland Center
03:36PM 41.0678 -77.9117 263° West 379 436 32,000  Level Cleveland Center
03:37PM 41.0481 -78.0472 259° West 379 436 32,000  Level Cleveland Center
03:38PM 41.0300 -78.1828 260° West 379 436 32,000  Level Cleveland Center
03:39PM 41.0103 -78.3350 260° West 379 436 32,000  Level Cleveland Center
03:40PM 40.9922 -78.4758 260° West 384 442 32,000  Level Cleveland Center
03:41PM 40.9717 -78.6167 259° West 389 448 32,000  Level Cleveland Center
03:42PM 40.9572 -78.7575 262° West 389 448 32,000  Level Cleveland Center
03:43PM 40.9408 -78.8981 261° West 394 453 32,000  Level Cleveland Center
03:44PM 40.9239 -79.0386 261° West 394 453 32,000  Level Cleveland Center
03:45PM 40.8903 -79.1742 252° West 389 448 32,000  Level Cleveland Center
03:46PM 40.8669 -79.3119 257° West 389 448 32,000  Level Cleveland Center
03:47PM 40.8517 -79.4550 262° West 394 453 32,000  Level Cleveland Center
03:48PM 40.8322 -79.5981 260° West 394 453 32,000  Level Cleveland Center
03:49PM 40.8083 -79.7408 258° West 394 453 32,000  Level Cleveland Center
03:50PM 40.7883 -79.8783 259° West 394 453 32,000  Level Cleveland Center
03:51PM 40.7683 -80.0075 258° West 394 453 32,000  Level Cleveland Center
03:52PM 40.7458 -80.1500 258° West 394 453 32,000  Level Cleveland Center
03:53PM 40.7233 -80.2956 259° West 394 453 32,000  Level Cleveland Center
03:54PM 40.6986 -80.4517 258° West 394 453 32,000 420 Level Cleveland Center
03:55PM 40.6822 -80.5914 261° West 394 453 32,900 780 Climbing Cleveland Center
03:56PM 40.6592 -80.7200 257° West 388 447 33,600 360 Climbing Cleveland Center
03:58PM 40.6161 -80.9511 256° West 382 440 34,000 180 Climbing Indianapolis Center
03:58PM 40.6106 -80.9906 260° West 377 434 34,000  Level Cleveland Center
03:59PM 40.5953 -81.1300 262° West 388 447 34,000  Level Cleveland Center
04:00PM 40.5717 -81.2664 257° West 393 452 34,000  Level Cleveland Center
04:01PM 40.5458 -81.4056 256° West 393 452 34,000  Level Cleveland Center
04:03PM 40.5047 -81.6525 258° West 391 450 34,000  Level Indianapolis Center
04:04PM 40.4769 -81.8181 258° West 392 451 34,000  Level Indianapolis Center
04:05PM 40.4517 -81.9561 257° West 387 445 34,000  Level Indianapolis Center
04:06PM 40.4253 -82.0975 256° West 391 450 34,000  Level Indianapolis Center
04:07PM 40.4039 -82.2397 259° West 394 453 34,000  Level Indianapolis Center
04:08PM 40.3786 -82.3825 257° West 396 456 34,000  Level Indianapolis Center
04:09PM 40.3550 -82.5275 258° West 401 461 34,000  Level Indianapolis Center
04:10PM 40.3283 -82.6686 256° West 397 457 34,000  Level Indianapolis Center
04:11PM 40.2981 -82.8322 256° West 396 456 34,000  Level Indianapolis Center
04:12PM 40.2733 -82.9747 257° West 399 459 34,000  Level Indianapolis Center
04:13PM 40.2475 -83.1167 257° West 400 460 34,000  Level Indianapolis Center
04:15PM 40.2200 -83.2589 256° West 403 464 34,000  Level Indianapolis Center
04:16PM 40.1928 -83.4014 256° West 405 466 34,000  Level Indianapolis Center
04:17PM 40.1694 -83.5453 258° West 410 472 34,000  Level Indianapolis Center
04:18PM 40.1408 -83.7139 258° West 407 468 34,000  Level Indianapolis Center
04:19PM 40.1128 -83.8575 256° West 409 471 34,000  Level Indianapolis Center
04:20PM 40.0847 -84.0017 256° West 409 471 34,000  Level Indianapolis Center
04:21PM 40.0553 -84.1467 255° West 410 472 34,000  Level Indianapolis Center
04:22PM 40.0278 -84.2928 256° West 414 476 34,000  Level Indianapolis Center
04:23PM 39.9983 -84.4386 255° West 413 475 34,000  Level Indianapolis Center
04:24PM 39.9631 -84.6078 255° West 413 475 34,000  Level Indianapolis Center
04:25PM 39.9361 -84.7525 256° West 408 470 34,000  Level Indianapolis Center
04:26PM 39.9083 -84.9008 256° West 409 471 34,000  Level Indianapolis Center
04:27PM 39.8806 -85.0444 256° West 410 472 34,000  Level Indianapolis Center
04:28PM 39.8503 -85.1897 255° West 415 478 34,000  Level Indianapolis Center
04:29PM 39.8206 -85.3311 255° West 409 471 34,000  Level Indianapolis Center
04:30PM 39.7908 -85.4750 255° West 411 473 34,000  Level Indianapolis Center
04:31PM 39.7614 -85.6181 255° West 411 473 34,000  Level Indianapolis Center
04:32PM 39.7283 -85.7928 256° West 413 475 34,000  Level Indianapolis Center
04:33PM 39.6983 -85.9381 255° West 416 479 34,000  Level Indianapolis Center
04:34PM 39.6650 -86.0844 254° West 419 482 34,000  Level Indianapolis Center
04:35PM 39.6308 -86.2322 253° West 419 482 34,000  Level Indianapolis Center
04:36PM 39.6036 -86.3819 257° West 417 480 34,000  Level Indianapolis Center
04:37PM 39.5744 -86.5278 255° West 414 476 34,000  Level Indianapolis Center
04:38PM 39.5439 -86.6717 255° West 413 475 34,000  Level Indianapolis Center
04:39PM 39.5108 -86.8161 254° West 416 479 34,000  Level Indianapolis Center
04:40PM 39.4711 -86.9872 253° West 415 478 34,000  Level Indianapolis Center
04:41PM 39.4381 -87.1300 253° West 416 479 34,000  Level Indianapolis Center
04:42PM 39.4067 -87.2753 254° West 419 482 34,000  Level Indianapolis Center
04:43PM 39.3769 -87.4197 255° West 418 481 34,000  Level Indianapolis Center
04:44PM 39.3472 -87.5617 255° West 412 474 34,000  Level Indianapolis Center
04:46PM 39.3111 -87.7125 253° West 420 483 34,000  Level Indianapolis Center
04:47PM 39.2778 -87.8558 253° West 418 481 34,000  Level Indianapolis Center
04:48PM 39.2372 -88.0292 253° West 419 482 34,000  Level Indianapolis Center
04:49PM 39.2047 -88.1742 254° West 420 483 34,000  Level Indianapolis Center
04:50PM 39.1717 -88.3186 254° West 422 486 34,000  Level Indianapolis Center
04:50PM 39.1547 -88.3808 251° West 421 484 34,000  Level Kansas City Center
04:51PM 39.1217 -88.5256 254° West 420 483 34,000  Level Kansas City Center
04:52PM 39.0847 -88.6706 252° West 419 482 34,000  Level Kansas City Center
04:53PM 39.0444 -88.8431 253° West 421 484 34,000  Level Kansas City Center
04:54PM 39.0108 -88.9969 254° West 421 484 34,000  Level Kansas City Center
04:55PM 38.9778 -89.1422 254° West 426 490 34,000  Level Kansas City Center
04:56PM 38.9394 -89.2961 252° West 423 487 34,000  Level Kansas City Center
04:57PM 38.9050 -89.4392 253° West 422 486 34,000 -60 Level Kansas City Center
04:58PM 38.8678 -89.5928 253° West 422 486 33,900 -720 Descending Kansas City Center
04:59PM 38.8342 -89.7319 253° West 418 481 32,600 -1,380 Descending Kansas City Center
05:01PM 38.7958 -89.8750 251° West 422 486 31,200 -1,440 Descending Kansas City Center
05:02PM 38.7608 -90.0211 253° West 418 481 29,700 -1,440 Descending Kansas City Center
05:03PM 38.7272 -90.1636 253° West 417 480 28,300 -1,440 Descending Kansas City Center
05:04PM 38.6922 -90.3050 252° West 417 480 26,800 -1,440 Descending Kansas City Center
05:05PM 38.6567 -90.4458 252° West 417 480 25,400 -1,380 Descending Kansas City Center
05:06PM 38.6111 -90.6133 251° West 415 478 24,000 -720 Descending Kansas City Center
05:07PM 38.5786 -90.7306 251° West 413 475 24,000  Level Kansas City Center
05:08PM 38.5428 -90.8703 252° West 413 475 24,000 -480 Level Kansas City Center
05:09PM 38.5011 -91.0411 253° West 419 482 23,000 -1,680 Descending Kansas City Center
05:10PM 38.4639 -91.1881 252° West 431 496 20,600 -2,340 Descending Kansas City Center
05:11PM 38.4264 -91.3372 252° West 439 505 18,200 -2,220 Descending Kansas City Center
05:12PM 38.3914 -91.4642 251° West 398 458 16,100 -2,280 Descending Kansas City Center
05:13PM 38.3556 -91.6011 252° West 339 390 13,500 -2,460 Descending Kansas City Center
05:14PM 38.3231 -91.7103 249° West 331 381 11,000 -2,340 Descending Kansas City Center
05:15PM 38.2961 -91.8078 251° West 293 337 8,800 -1,500 Descending Kansas City Center
05:16PM 38.2742 -91.9050 254° West 287 330 8,000 -540 Descending Kansas City Center
05:17PM 38.2506 -92.0031 253° West 289 333 7,700 -1,020 Descending Kansas City Center
05:18PM 38.2267 -92.0989 252° West 287 330 6,000 -1,860 Descending Kansas City Center
05:19PM 38.2022 -92.2000 253° West 258 297 3,900 -1,320 Descending Kansas City Center
05:20PM 38.1797 -92.2797 250° West 248 285 3,300 -480 Descending Kansas City Center
05:21PM 38.1561 -92.3569 249° West 241 277 3,000 -180 Descending Kansas City Center
05:22PM 38.1319 -92.4336 248° West 233 268 3,000  Level Kansas City Center
05:24PM 38.0833 -92.5333 247° West  Level FlightAware Approximate
05:31PM 38.0960 -92.5495 247° West  Level Estimated
05:32PM 38.0960 -92.5495 247° West  Level Estimated
05:33PM 38.0960 -92.5495 247° West  Level Estimated
05:34PM 38.0960 -92.5495 247° West  Level Estimated